sensor_id;sensor_type;location;lat;lon;timestamp;temperature;humidity
19968;DHT22;10145;49.152;9.282;2022-12-29T00:01:59;9.70;99.90
19968;DHT22;10145;49.152;9.282;2022-12-29T00:04:25;9.70;99.90
19968;DHT22;10145;49.152;9.282;2022-12-29T00:06:52;9.80;99.90
19968;DHT22;10145;49.152;9.282;2022-12-29T00:09:18;9.80;99.90
19968;DHT22;10145;49.152;9.282;2022-12-29T00:11:43;9.80;99.90
19968;DHT22;10145;49.152;9.282;2022-12-29T00:14:10;9.70;99.90
19968;DHT22;10145;49.152;9.282;2022-12-29T00:16:54;9.70;99.90
19968;DHT22;10145;49.152;9.282;2022-12-29T00:19:20;9.80;99.90
19968;DHT22;10145;49.152;9.282;2022-12-29T00:22:04;9.90;99.90
19968;DHT22;10145;49.152;9.282;2022-12-29T00:24:49;9.80;99.90
19968;DHT22;10145;49.152;9.282;2022-12-29T00:27:27;9.90;99.90
19968;DHT22;10145;49.152;9.282;2022-12-29T00:30:17;9.90;99.90
19968;DHT22;10145;49.152;9.282;2022-12-29T00:33:15;9.90;99.90
19968;DHT22;10145;49.152;9.282;2022-12-29T00:36:21;9.90;99.90
19968;DHT22;10145;49.152;9.282;2022-12-29T00:38:55;9.90;99.90
19968;DHT22;10145;49.152;9.282;2022-12-29T00:41:40;9.80;99.90
19968;DHT22;10145;49.152;9.282;2022-12-29T00:44:24;9.80;99.90
19968;DHT22;10145;49.152;9.282;2022-12-29T00:46:49;9.80;99.90
19968;DHT22;10145;49.152;9.282;2022-12-29T00:49:15;9.90;99.90
19968;DHT22;10145;49.152;9.282;2022-12-29T00:54:27;9.90;99.90
19968;DHT22;10145;49.152;9.282;2022-12-29T00:56:53;9.90;99.90
19968;DHT22;10145;49.152;9.282;2022-12-29T00:59:19;9.90;99.90
19968;DHT22;10145;49.152;9.282;2022-12-29T01:01:45;10.00;99.90
19968;DHT22;10145;49.152;9.282;2022-12-29T01:04:12;9.90;99.90
19968;DHT22;10145;49.152;9.282;2022-12-29T01:06:39;10.10;99.90
19968;DHT22;10145;49.152;9.282;2022-12-29T01:09:07;10.00;99.90
19968;DHT22;10145;49.152;9.282;2022-12-29T01:11:51;9.90;99.90
19968;DHT22;10145;49.152;9.282;2022-12-29T01:14:17;9.90;99.90
19968;DHT22;10145;49.152;9.282;2022-12-29T01:16:43;10.10;99.90
19968;DHT22;10145;49.152;9.282;2022-12-29T01:19:09;10.10;99.90
19968;DHT22;10145;49.152;9.282;2022-12-29T01:21:35;10.10;99.90
19968;DHT22;10145;49.152;9.282;2022-12-29T01:24:00;10.10;99.90
19968;DHT22;10145;49.152;9.282;2022-12-29T01:26:26;10.10;99.90
19968;DHT22;10145;49.152;9.282;2022-12-29T01:28:52;10.20;99.90
19968;DHT22;10145;49.152;9.282;2022-12-29T01:31:17;10.30;99.90
19968;DHT22;10145;49.152;9.282;2022-12-29T01:33:43;10.30;99.90
19968;DHT22;10145;49.152;9.282;2022-12-29T01:36:14;10.30;99.90
19968;DHT22;10145;49.152;9.282;2022-12-29T01:38:41;10.30;99.90
19968;DHT22;10145;49.152;9.282;2022-12-29T01:41:08;10.30;99.90
19968;DHT22;10145;49.152;9.282;2022-12-29T01:43:54;10.20;99.90
19968;DHT22;10145;49.152;9.282;2022-12-29T01:46:29;10.20;99.90
19968;DHT22;10145;49.152;9.282;2022-12-29T01:49:07;10.10;99.90
19968;DHT22;10145;49.152;9.282;2022-12-29T01:51:38;9.90;99.90
19968;DHT22;10145;49.152;9.282;2022-12-29T01:54:09;9.80;99.90
19968;DHT22;10145;49.152;9.282;2022-12-29T01:56:36;9.80;99.90
19968;DHT22;10145;49.152;9.282;2022-12-29T01:59:06;9.80;99.90
19968;DHT22;10145;49.152;9.282;2022-12-29T02:01:34;9.80;99.90
19968;DHT22;10145;49.152;9.282;2022-12-29T02:04:00;9.90;99.90
19968;DHT22;10145;49.152;9.282;2022-12-29T02:06:36;9.90;99.90
19968;DHT22;10145;49.152;9.282;2022-12-29T02:09:03;9.90;99.90
19968;DHT22;10145;49.152;9.282;2022-12-29T02:11:29;10.00;99.90
19968;DHT22;10145;49.152;9.282;2022-12-29T02:13:56;10.00;99.90
19968;DHT22;10145;49.152;9.282;2022-12-29T02:17:03;10.10;99.90
19968;DHT22;10145;49.152;9.282;2022-12-29T02:19:56;10.10;99.90
19968;DHT22;10145;49.152;9.282;2022-12-29T02:26:02;10.10;99.90
19968;DHT22;10145;49.152;9.282;2022-12-29T02:28:53;10.20;99.90
19968;DHT22;10145;49.152;9.282;2022-12-29T02:34:10;10.30;99.90
19968;DHT22;10145;49.152;9.282;2022-12-29T02:37:06;10.30;99.90
19968;DHT22;10145;49.152;9.282;2022-12-29T02:40:01;10.30;99.90
19968;DHT22;10145;49.152;9.282;2022-12-29T02:42:45;10.30;99.90
19968;DHT22;10145;49.152;9.282;2022-12-29T02:48:15;10.20;99.90
19968;DHT22;10145;49.152;9.282;2022-12-29T02:51:09;10.10;99.90
19968;DHT22;10145;49.152;9.282;2022-12-29T02:53:33;10.00;99.90
19968;DHT22;10145;49.152;9.282;2022-12-29T02:56:18;10.10;99.90
19968;DHT22;10145;49.152;9.282;2022-12-29T02:58:44;10.10;99.90
19968;DHT22;10145;49.152;9.282;2022-12-29T03:10:08;10.20;99.90
19968;DHT22;10145;49.152;9.282;2022-12-29T03:12:49;10.20;99.90
19968;DHT22;10145;49.152;9.282;2022-12-29T03:18:44;10.30;99.90
19968;DHT22;10145;49.152;9.282;2022-12-29T03:21:26;10.30;99.90
19968;DHT22;10145;49.152;9.282;2022-12-29T03:24:17;10.40;99.90
19968;DHT22;10145;49.152;9.282;2022-12-29T03:26:44;10.50;99.90
19968;DHT22;10145;49.152;9.282;2022-12-29T03:29:11;10.60;99.90
19968;DHT22;10145;49.152;9.282;2022-12-29T03:31:38;10.70;99.90
19968;DHT22;10145;49.152;9.282;2022-12-29T03:34:05;10.70;99.90
19968;DHT22;10145;49.152;9.282;2022-12-29T03:36:39;10.70;99.90
19968;DHT22;10145;49.152;9.282;2022-12-29T03:39:09;10.70;99.90
19968;DHT22;10145;49.152;9.282;2022-12-29T03:41:38;10.80;99.90
19968;DHT22;10145;49.152;9.282;2022-12-29T03:44:08;10.80;99.90
19968;DHT22;10145;49.152;9.282;2022-12-29T03:46:34;10.70;99.90
19968;DHT22;10145;49.152;9.282;2022-12-29T03:49:00;10.70;99.90
19968;DHT22;10145;49.152;9.282;2022-12-29T03:51:26;10.60;99.90
19968;DHT22;10145;49.152;9.282;2022-12-29T03:53:51;10.70;99.90
19968;DHT22;10145;49.152;9.282;2022-12-29T03:56:17;10.70;99.90
19968;DHT22;10145;49.152;9.282;2022-12-29T03:58:42;10.70;99.90
19968;DHT22;10145;49.152;9.282;2022-12-29T04:01:08;10.80;99.90
19968;DHT22;10145;49.152;9.282;2022-12-29T04:03:33;10.80;99.90
19968;DHT22;10145;49.152;9.282;2022-12-29T04:05:59;10.90;99.90
19968;DHT22;10145;49.152;9.282;2022-12-29T04:08:25;10.90;99.90
19968;DHT22;10145;49.152;9.282;2022-12-29T04:10:50;10.90;99.90
19968;DHT22;10145;49.152;9.282;2022-12-29T04:13:16;10.90;99.90
19968;DHT22;10145;49.152;9.282;2022-12-29T04:15:43;11.00;99.90
19968;DHT22;10145;49.152;9.282;2022-12-29T04:18:08;11.00;99.90
19968;DHT22;10145;49.152;9.282;2022-12-29T04:20:34;11.10;99.90
19968;DHT22;10145;49.152;9.282;2022-12-29T04:23:18;11.10;99.90
19968;DHT22;10145;49.152;9.282;2022-12-29T04:25:47;11.00;99.90
19968;DHT22;10145;49.152;9.282;2022-12-29T04:28:13;11.10;99.90
19968;DHT22;10145;49.152;9.282;2022-12-29T04:30:39;11.00;99.90
19968;DHT22;10145;49.152;9.282;2022-12-29T04:33:05;11.00;99.90
19968;DHT22;10145;49.152;9.282;2022-12-29T04:35:30;11.00;99.90
19968;DHT22;10145;49.152;9.282;2022-12-29T04:37:56;11.00;99.90
19968;DHT22;10145;49.152;9.282;2022-12-29T04:40:21;11.10;99.90
19968;DHT22;10145;49.152;9.282;2022-12-29T04:42:48;11.10;99.90
19968;DHT22;10145;49.152;9.282;2022-12-29T04:45:14;11.10;99.90
19968;DHT22;10145;49.152;9.282;2022-12-29T04:47:40;11.20;99.90
19968;DHT22;10145;49.152;9.282;2022-12-29T04:50:05;11.20;99.90
19968;DHT22;10145;49.152;9.282;2022-12-29T04:52:31;11.30;99.90
19968;DHT22;10145;49.152;9.282;2022-12-29T04:54:56;11.30;99.90
19968;DHT22;10145;49.152;9.282;2022-12-29T04:57:22;11.30;99.90
19968;DHT22;10145;49.152;9.282;2022-12-29T04:59:47;11.30;99.90
19968;DHT22;10145;49.152;9.282;2022-12-29T05:02:13;11.50;99.90
19968;DHT22;10145;49.152;9.282;2022-12-29T05:04:39;11.50;99.90
19968;DHT22;10145;49.152;9.282;2022-12-29T05:07:04;11.60;99.90
19968;DHT22;10145;49.152;9.282;2022-12-29T05:09:30;11.60;99.90
19968;DHT22;10145;49.152;9.282;2022-12-29T05:11:55;11.50;99.90
19968;DHT22;10145;49.152;9.282;2022-12-29T05:14:21;11.60;99.90
19968;DHT22;10145;49.152;9.282;2022-12-29T05:16:47;11.60;99.90
19968;DHT22;10145;49.152;9.282;2022-12-29T05:19:12;11.60;99.90
19968;DHT22;10145;49.152;9.282;2022-12-29T05:21:38;11.60;99.90
19968;DHT22;10145;49.152;9.282;2022-12-29T05:24:04;11.50;99.90
19968;DHT22;10145;49.152;9.282;2022-12-29T05:26:29;11.60;99.90
19968;DHT22;10145;49.152;9.282;2022-12-29T05:28:55;11.60;99.90
19968;DHT22;10145;49.152;9.282;2022-12-29T05:31:20;11.70;99.90
19968;DHT22;10145;49.152;9.282;2022-12-29T05:33:46;11.70;99.90
19968;DHT22;10145;49.152;9.282;2022-12-29T05:36:12;11.70;99.90
19968;DHT22;10145;49.152;9.282;2022-12-29T05:38:37;11.80;99.90
19968;DHT22;10145;49.152;9.282;2022-12-29T05:41:03;11.80;99.90
19968;DHT22;10145;49.152;9.282;2022-12-29T05:43:29;11.80;99.90
19968;DHT22;10145;49.152;9.282;2022-12-29T05:45:55;11.80;99.90
19968;DHT22;10145;49.152;9.282;2022-12-29T05:48:21;11.80;99.90
19968;DHT22;10145;49.152;9.282;2022-12-29T05:50:48;11.90;99.90
19968;DHT22;10145;49.152;9.282;2022-12-29T05:53:13;11.90;99.90
19968;DHT22;10145;49.152;9.282;2022-12-29T05:55:39;11.90;99.90
19968;DHT22;10145;49.152;9.282;2022-12-29T05:58:04;11.80;99.90
19968;DHT22;10145;49.152;9.282;2022-12-29T06:00:30;11.80;99.90
19968;DHT22;10145;49.152;9.282;2022-12-29T06:02:55;11.70;99.90
19968;DHT22;10145;49.152;9.282;2022-12-29T06:05:21;11.80;99.90
19968;DHT22;10145;49.152;9.282;2022-12-29T06:07:46;11.70;99.90
19968;DHT22;10145;49.152;9.282;2022-12-29T06:10:12;11.70;99.90
19968;DHT22;10145;49.152;9.282;2022-12-29T06:12:38;11.70;99.90
19968;DHT22;10145;49.152;9.282;2022-12-29T06:15:03;11.70;99.90
19968;DHT22;10145;49.152;9.282;2022-12-29T06:17:29;11.60;99.90
19968;DHT22;10145;49.152;9.282;2022-12-29T06:19:55;11.60;99.90
19968;DHT22;10145;49.152;9.282;2022-12-29T06:22:20;11.60;99.90
19968;DHT22;10145;49.152;9.282;2022-12-29T06:24:46;11.60;99.90
19968;DHT22;10145;49.152;9.282;2022-12-29T06:27:11;11.50;99.90
19968;DHT22;10145;49.152;9.282;2022-12-29T06:29:37;11.50;99.90
19968;DHT22;10145;49.152;9.282;2022-12-29T06:32:05;11.60;99.90
19968;DHT22;10145;49.152;9.282;2022-12-29T06:34:30;11.50;99.90
19968;DHT22;10145;49.152;9.282;2022-12-29T06:36:56;11.50;99.90
19968;DHT22;10145;49.152;9.282;2022-12-29T06:39:21;11.50;99.90
19968;DHT22;10145;49.152;9.282;2022-12-29T06:41:47;11.40;99.90
19968;DHT22;10145;49.152;9.282;2022-12-29T06:44:12;11.40;99.90
19968;DHT22;10145;49.152;9.282;2022-12-29T06:46:38;11.30;99.90
19968;DHT22;10145;49.152;9.282;2022-12-29T06:49:03;11.30;99.90
19968;DHT22;10145;49.152;9.282;2022-12-29T06:51:29;11.20;99.90
19968;DHT22;10145;49.152;9.282;2022-12-29T06:53:55;11.10;99.90
19968;DHT22;10145;49.152;9.282;2022-12-29T06:56:20;11.10;99.90
19968;DHT22;10145;49.152;9.282;2022-12-29T06:58:46;11.10;99.90
19968;DHT22;10145;49.152;9.282;2022-12-29T07:01:11;11.30;99.90
19968;DHT22;10145;49.152;9.282;2022-12-29T07:03:37;11.30;99.90
19968;DHT22;10145;49.152;9.282;2022-12-29T07:06:02;11.40;99.90
19968;DHT22;10145;49.152;9.282;2022-12-29T07:08:28;11.40;99.90
19968;DHT22;10145;49.152;9.282;2022-12-29T07:10:54;11.50;99.90
19968;DHT22;10145;49.152;9.282;2022-12-29T07:13:19;11.50;99.90
19968;DHT22;10145;49.152;9.282;2022-12-29T07:15:45;11.60;99.90
19968;DHT22;10145;49.152;9.282;2022-12-29T07:18:10;11.60;99.90
19968;DHT22;10145;49.152;9.282;2022-12-29T07:20:36;11.70;99.90
19968;DHT22;10145;49.152;9.282;2022-12-29T07:23:02;11.70;99.90
19968;DHT22;10145;49.152;9.282;2022-12-29T07:25:28;11.80;99.90
19968;DHT22;10145;49.152;9.282;2022-12-29T07:27:54;11.80;99.90
19968;DHT22;10145;49.152;9.282;2022-12-29T07:30:20;11.80;99.90
19968;DHT22;10145;49.152;9.282;2022-12-29T07:32:45;11.80;99.90
19968;DHT22;10145;49.152;9.282;2022-12-29T07:35:11;11.70;99.90
19968;DHT22;10145;49.152;9.282;2022-12-29T07:37:36;11.80;99.90
19968;DHT22;10145;49.152;9.282;2022-12-29T07:40:03;11.80;99.90
19968;DHT22;10145;49.152;9.282;2022-12-29T07:42:29;11.90;99.90
19968;DHT22;10145;49.152;9.282;2022-12-29T07:44:54;11.90;99.90
19968;DHT22;10145;49.152;9.282;2022-12-29T07:47:20;12.00;99.90
19968;DHT22;10145;49.152;9.282;2022-12-29T07:49:45;12.00;99.90
19968;DHT22;10145;49.152;9.282;2022-12-29T07:52:12;12.00;99.90
19968;DHT22;10145;49.152;9.282;2022-12-29T07:54:37;12.00;99.90
19968;DHT22;10145;49.152;9.282;2022-12-29T07:57:04;12.00;99.90
19968;DHT22;10145;49.152;9.282;2022-12-29T07:59:30;12.10;99.90
19968;DHT22;10145;49.152;9.282;2022-12-29T08:01:55;12.00;99.90
19968;DHT22;10145;49.152;9.282;2022-12-29T08:04:21;12.10;99.90
19968;DHT22;10145;49.152;9.282;2022-12-29T08:06:47;12.10;99.90
19968;DHT22;10145;49.152;9.282;2022-12-29T08:09:12;12.20;99.90
19968;DHT22;10145;49.152;9.282;2022-12-29T08:11:38;12.20;99.90
19968;DHT22;10145;49.152;9.282;2022-12-29T08:14:04;12.30;99.90
19968;DHT22;10145;49.152;9.282;2022-12-29T08:16:29;12.30;99.90
19968;DHT22;10145;49.152;9.282;2022-12-29T08:18:56;12.30;99.90
19968;DHT22;10145;49.152;9.282;2022-12-29T08:21:21;12.30;99.90
19968;DHT22;10145;49.152;9.282;2022-12-29T08:23:47;12.30;99.90
19968;DHT22;10145;49.152;9.282;2022-12-29T08:26:12;12.30;99.90
19968;DHT22;10145;49.152;9.282;2022-12-29T08:28:38;12.20;99.90
19968;DHT22;10145;49.152;9.282;2022-12-29T08:31:04;12.20;99.90
19968;DHT22;10145;49.152;9.282;2022-12-29T08:33:30;12.20;99.90
19968;DHT22;10145;49.152;9.282;2022-12-29T08:36:03;12.20;99.90
19968;DHT22;10145;49.152;9.282;2022-12-29T08:38:29;12.30;99.90
19968;DHT22;10145;49.152;9.282;2022-12-29T08:40:56;12.30;99.90
19968;DHT22;10145;49.152;9.282;2022-12-29T08:43:22;12.20;99.90
19968;DHT22;10145;49.152;9.282;2022-12-29T08:45:48;12.20;99.90
19968;DHT22;10145;49.152;9.282;2022-12-29T08:48:13;12.20;99.90
19968;DHT22;10145;49.152;9.282;2022-12-29T08:50:39;12.20;99.90
19968;DHT22;10145;49.152;9.282;2022-12-29T08:53:04;12.30;99.90
19968;DHT22;10145;49.152;9.282;2022-12-29T08:55:30;12.30;99.90
19968;DHT22;10145;49.152;9.282;2022-12-29T08:57:55;12.40;99.90
19968;DHT22;10145;49.152;9.282;2022-12-29T09:00:21;12.50;99.90
19968;DHT22;10145;49.152;9.282;2022-12-29T09:02:47;12.60;99.90
19968;DHT22;10145;49.152;9.282;2022-12-29T09:05:12;12.60;99.90
19968;DHT22;10145;49.152;9.282;2022-12-29T09:07:38;12.60;99.90
19968;DHT22;10145;49.152;9.282;2022-12-29T09:10:04;12.70;99.90
19968;DHT22;10145;49.152;9.282;2022-12-29T09:12:30;12.70;99.90
19968;DHT22;10145;49.152;9.282;2022-12-29T09:14:56;12.80;99.90
19968;DHT22;10145;49.152;9.282;2022-12-29T09:17:21;12.70;99.90
19968;DHT22;10145;49.152;9.282;2022-12-29T09:20:05;12.80;99.90
19968;DHT22;10145;49.152;9.282;2022-12-29T09:22:31;12.90;99.90
19968;DHT22;10145;49.152;9.282;2022-12-29T09:24:57;12.90;99.90
19968;DHT22;10145;49.152;9.282;2022-12-29T09:27:22;12.90;99.90
19968;DHT22;10145;49.152;9.282;2022-12-29T09:29:48;12.90;99.90
19968;DHT22;10145;49.152;9.282;2022-12-29T09:32:13;12.90;99.90
19968;DHT22;10145;49.152;9.282;2022-12-29T09:34:39;12.90;99.90
19968;DHT22;10145;49.152;9.282;2022-12-29T09:37:05;12.90;99.90
19968;DHT22;10145;49.152;9.282;2022-12-29T09:39:30;12.90;99.90
19968;DHT22;10145;49.152;9.282;2022-12-29T09:42:08;12.90;99.90
19968;DHT22;10145;49.152;9.282;2022-12-29T09:45:20;12.90;99.90
19968;DHT22;10145;49.152;9.282;2022-12-29T09:47:45;12.90;99.90
19968;DHT22;10145;49.152;9.282;2022-12-29T09:50:37;12.80;99.90
19968;DHT22;10145;49.152;9.282;2022-12-29T09:53:24;12.80;99.90
19968;DHT22;10145;49.152;9.282;2022-12-29T09:55:54;12.70;99.90
19968;DHT22;10145;49.152;9.282;2022-12-29T09:59:02;12.80;99.90
19968;DHT22;10145;49.152;9.282;2022-12-29T10:04:14;12.70;99.90
19968;DHT22;10145;49.152;9.282;2022-12-29T10:06:46;12.80;99.90
19968;DHT22;10145;49.152;9.282;2022-12-29T10:09:30;12.80;99.90
19968;DHT22;10145;49.152;9.282;2022-12-29T10:12:27;12.80;99.90
19968;DHT22;10145;49.152;9.282;2022-12-29T10:23:21;12.90;99.90
19968;DHT22;10145;49.152;9.282;2022-12-29T10:25:47;13.10;99.90
19968;DHT22;10145;49.152;9.282;2022-12-29T10:28:20;13.30;99.90
19968;DHT22;10145;49.152;9.282;2022-12-29T10:30:48;13.30;99.90
19968;DHT22;10145;49.152;9.282;2022-12-29T10:33:21;13.50;99.90
19968;DHT22;10145;49.152;9.282;2022-12-29T10:35:49;13.60;99.90
19968;DHT22;10145;49.152;9.282;2022-12-29T10:43:35;14.00;99.90
19968;DHT22;10145;49.152;9.282;2022-12-29T10:46:05;14.10;99.90
19968;DHT22;10145;49.152;9.282;2022-12-29T10:48:34;14.10;99.90
19968;DHT22;10145;49.152;9.282;2022-12-29T10:51:01;14.10;99.90
19968;DHT22;10145;49.152;9.282;2022-12-29T10:53:38;14.00;99.90
19968;DHT22;10145;49.152;9.282;2022-12-29T10:56:14;14.10;99.90
19968;DHT22;10145;49.152;9.282;2022-12-29T10:58:43;14.20;99.90
19968;DHT22;10145;49.152;9.282;2022-12-29T11:01:12;14.20;99.90
19968;DHT22;10145;49.152;9.282;2022-12-29T11:03:58;14.40;99.90
19968;DHT22;10145;49.152;9.282;2022-12-29T11:06:28;14.50;99.90
19968;DHT22;10145;49.152;9.282;2022-12-29T11:09:15;14.40;99.90
19968;DHT22;10145;49.152;9.282;2022-12-29T11:11:41;14.40;99.90
19968;DHT22;10145;49.152;9.282;2022-12-29T11:16:38;13.70;99.90
19968;DHT22;10145;49.152;9.282;2022-12-29T11:19:03;13.50;99.90
19968;DHT22;10145;49.152;9.282;2022-12-29T11:21:33;13.20;99.90
19968;DHT22;10145;49.152;9.282;2022-12-29T11:24:01;13.10;99.90
19968;DHT22;10145;49.152;9.282;2022-12-29T11:26:28;13.20;99.90
19968;DHT22;10145;49.152;9.282;2022-12-29T11:32:12;12.90;99.90
19968;DHT22;10145;49.152;9.282;2022-12-29T11:34:38;12.80;99.90
19968;DHT22;10145;49.152;9.282;2022-12-29T11:37:04;12.70;99.90
19968;DHT22;10145;49.152;9.282;2022-12-29T11:42:17;12.80;99.90
19968;DHT22;10145;49.152;9.282;2022-12-29T11:44:46;13.00;99.90
19968;DHT22;10145;49.152;9.282;2022-12-29T11:47:24;13.20;99.90
19968;DHT22;10145;49.152;9.282;2022-12-29T11:49:54;13.40;99.90
19968;DHT22;10145;49.152;9.282;2022-12-29T11:52:23;13.50;99.90
19968;DHT22;10145;49.152;9.282;2022-12-29T11:54:50;13.50;99.90
19968;DHT22;10145;49.152;9.282;2022-12-29T11:57:17;13.60;99.90
19968;DHT22;10145;49.152;9.282;2022-12-29T12:04:53;13.90;99.90
19968;DHT22;10145;49.152;9.282;2022-12-29T12:07:24;13.90;99.90
19968;DHT22;10145;49.152;9.282;2022-12-29T12:09:58;13.90;99.90
19968;DHT22;10145;49.152;9.282;2022-12-29T12:12:47;14.00;99.90
19968;DHT22;10145;49.152;9.282;2022-12-29T12:15:20;14.00;99.90
19968;DHT22;10145;49.152;9.282;2022-12-29T12:18:11;14.10;99.90
19968;DHT22;10145;49.152;9.282;2022-12-29T12:21:13;14.30;99.90
19968;DHT22;10145;49.152;9.282;2022-12-29T12:26:16;14.40;99.90
19968;DHT22;10145;49.152;9.282;2022-12-29T12:28:53;14.40;99.90
19968;DHT22;10145;49.152;9.282;2022-12-29T12:34:22;14.20;99.90
19968;DHT22;10145;49.152;9.282;2022-12-29T12:37:23;14.10;99.90
19968;DHT22;10145;49.152;9.282;2022-12-29T12:40:14;14.10;99.90
19968;DHT22;10145;49.152;9.282;2022-12-29T12:43:06;14.10;99.90
19968;DHT22;10145;49.152;9.282;2022-12-29T12:51:00;13.90;99.90
19968;DHT22;10145;49.152;9.282;2022-12-29T12:59:52;13.90;99.90
19968;DHT22;10145;49.152;9.282;2022-12-29T13:02:43;13.70;99.90
19968;DHT22;10145;49.152;9.282;2022-12-29T13:05:31;13.70;99.90
19968;DHT22;10145;49.152;9.282;2022-12-29T13:13:55;13.90;99.90
19968;DHT22;10145;49.152;9.282;2022-12-29T13:16:30;13.90;99.90
19968;DHT22;10145;49.152;9.282;2022-12-29T13:19:24;13.90;99.90
19968;DHT22;10145;49.152;9.282;2022-12-29T13:21:59;13.80;99.90
19968;DHT22;10145;49.152;9.282;2022-12-29T13:27:48;13.90;99.90
19968;DHT22;10145;49.152;9.282;2022-12-29T13:30:19;14.00;99.90
19968;DHT22;10145;49.152;9.282;2022-12-29T13:41:01;13.70;99.90
19968;DHT22;10145;49.152;9.282;2022-12-29T13:43:29;13.50;99.90
19968;DHT22;10145;49.152;9.282;2022-12-29T13:46:04;13.30;99.90
19968;DHT22;10145;49.152;9.282;2022-12-29T13:48:41;13.10;99.90
19968;DHT22;10145;49.152;9.282;2022-12-29T13:51:09;13.00;99.90
19968;DHT22;10145;49.152;9.282;2022-12-29T13:56:40;12.80;99.90
19968;DHT22;10145;49.152;9.282;2022-12-29T14:02:59;12.80;99.90
19968;DHT22;10145;49.152;9.282;2022-12-29T14:05:26;12.70;99.90
19968;DHT22;10145;49.152;9.282;2022-12-29T14:07:59;12.60;99.90
19968;DHT22;10145;49.152;9.282;2022-12-29T14:10:46;12.60;99.90
19968;DHT22;10145;49.152;9.282;2022-12-29T14:13:15;12.70;99.90
19968;DHT22;10145;49.152;9.282;2022-12-29T14:15:44;12.80;99.90
19968;DHT22;10145;49.152;9.282;2022-12-29T14:20:36;12.80;99.90
19968;DHT22;10145;49.152;9.282;2022-12-29T14:23:17;12.80;99.90
19968;DHT22;10145;49.152;9.282;2022-12-29T14:28:46;12.70;99.90
19968;DHT22;10145;49.152;9.282;2022-12-29T14:36:37;12.50;99.90
19968;DHT22;10145;49.152;9.282;2022-12-29T14:39:04;12.30;99.90
19968;DHT22;10145;49.152;9.282;2022-12-29T14:41:59;12.00;99.90
19968;DHT22;10145;49.152;9.282;2022-12-29T14:44:25;11.60;99.90
19968;DHT22;10145;49.152;9.282;2022-12-29T14:49:21;11.30;99.90
19968;DHT22;10145;49.152;9.282;2022-12-29T14:51:50;11.10;99.90
19968;DHT22;10145;49.152;9.282;2022-12-29T14:57:06;10.60;99.90
19968;DHT22;10145;49.152;9.282;2022-12-29T14:59:34;10.40;99.90
19968;DHT22;10145;49.152;9.282;2022-12-29T15:02:02;10.30;99.90
19968;DHT22;10145;49.152;9.282;2022-12-29T15:04:33;10.20;99.90
19968;DHT22;10145;49.152;9.282;2022-12-29T15:07:01;10.10;99.90
19968;DHT22;10145;49.152;9.282;2022-12-29T15:14:53;10.00;99.90
19968;DHT22;10145;49.152;9.282;2022-12-29T15:17:30;10.00;99.90
19968;DHT22;10145;49.152;9.282;2022-12-29T15:19:58;9.90;99.90
19968;DHT22;10145;49.152;9.282;2022-12-29T15:22:24;9.90;99.90
19968;DHT22;10145;49.152;9.282;2022-12-29T15:24:55;9.90;99.90
19968;DHT22;10145;49.152;9.282;2022-12-29T15:27:23;9.80;99.90
19968;DHT22;10145;49.152;9.282;2022-12-29T15:30:03;9.70;99.90
19968;DHT22;10145;49.152;9.282;2022-12-29T15:32:40;9.50;99.90
19968;DHT22;10145;49.152;9.282;2022-12-29T15:35:32;9.40;99.90
19968;DHT22;10145;49.152;9.282;2022-12-29T15:37:58;9.40;99.90
19968;DHT22;10145;49.152;9.282;2022-12-29T15:40:28;9.30;99.90
19968;DHT22;10145;49.152;9.282;2022-12-29T15:45:51;9.30;99.90
19968;DHT22;10145;49.152;9.282;2022-12-29T15:48:22;9.30;99.90
19968;DHT22;10145;49.152;9.282;2022-12-29T15:50:49;9.20;99.90
19968;DHT22;10145;49.152;9.282;2022-12-29T15:53:41;9.20;99.90
19968;DHT22;10145;49.152;9.282;2022-12-29T15:56:09;9.20;99.90
19968;DHT22;10145;49.152;9.282;2022-12-29T15:58:47;9.20;99.90
19968;DHT22;10145;49.152;9.282;2022-12-29T16:01:27;9.20;99.90
19968;DHT22;10145;49.152;9.282;2022-12-29T16:03:53;9.10;99.90
19968;DHT22;10145;49.152;9.282;2022-12-29T16:09:06;9.10;99.90
19968;DHT22;10145;49.152;9.282;2022-12-29T16:11:41;9.10;99.90
19968;DHT22;10145;49.152;9.282;2022-12-29T16:14:15;9.10;99.90
19968;DHT22;10145;49.152;9.282;2022-12-29T16:16:43;9.00;99.90
19968;DHT22;10145;49.152;9.282;2022-12-29T16:19:29;8.90;99.90
19968;DHT22;10145;49.152;9.282;2022-12-29T16:21:58;8.90;99.90
19968;DHT22;10145;49.152;9.282;2022-12-29T16:24:28;8.90;99.90
19968;DHT22;10145;49.152;9.282;2022-12-29T16:26:59;8.90;99.90
19968;DHT22;10145;49.152;9.282;2022-12-29T16:29:29;8.90;99.90
19968;DHT22;10145;49.152;9.282;2022-12-29T16:31:57;8.90;99.90
19968;DHT22;10145;49.152;9.282;2022-12-29T16:34:42;8.90;99.90
19968;DHT22;10145;49.152;9.282;2022-12-29T16:37:30;8.90;99.90
19968;DHT22;10145;49.152;9.282;2022-12-29T16:39:56;9.00;99.90
19968;DHT22;10145;49.152;9.282;2022-12-29T16:47:46;9.00;99.90
19968;DHT22;10145;49.152;9.282;2022-12-29T16:50:17;8.90;99.90
19968;DHT22;10145;49.152;9.282;2022-12-29T16:52:48;9.00;99.90
19968;DHT22;10145;49.152;9.282;2022-12-29T16:55:18;9.00;99.90
19968;DHT22;10145;49.152;9.282;2022-12-29T16:57:46;9.00;99.90
19968;DHT22;10145;49.152;9.282;2022-12-29T17:00:24;9.00;99.90
19968;DHT22;10145;49.152;9.282;2022-12-29T17:02:54;9.10;99.90
19968;DHT22;10145;49.152;9.282;2022-12-29T17:05:21;9.10;99.90
19968;DHT22;10145;49.152;9.282;2022-12-29T17:07:49;9.10;99.90
19968;DHT22;10145;49.152;9.282;2022-12-29T17:10:16;9.10;99.90
19968;DHT22;10145;49.152;9.282;2022-12-29T17:12:43;9.10;99.90
19968;DHT22;10145;49.152;9.282;2022-12-29T17:15:25;9.00;99.90
19968;DHT22;10145;49.152;9.282;2022-12-29T17:17:53;9.00;99.90
19968;DHT22;10145;49.152;9.282;2022-12-29T17:20:25;9.00;99.90
19968;DHT22;10145;49.152;9.282;2022-12-29T17:22:51;9.00;99.90
19968;DHT22;10145;49.152;9.282;2022-12-29T17:25:38;9.00;99.90
19968;DHT22;10145;49.152;9.282;2022-12-29T17:28:39;9.00;99.90
19968;DHT22;10145;49.152;9.282;2022-12-29T17:31:01;8.90;99.90
19968;DHT22;10145;49.152;9.282;2022-12-29T17:33:29;8.90;99.90
19968;DHT22;10145;49.152;9.282;2022-12-29T17:35:58;8.90;99.90
19968;DHT22;10145;49.152;9.282;2022-12-29T17:38:33;8.90;99.90
19968;DHT22;10145;49.152;9.282;2022-12-29T17:40:59;8.90;99.90
19968;DHT22;10145;49.152;9.282;2022-12-29T17:43:24;8.80;99.90
19968;DHT22;10145;49.152;9.282;2022-12-29T17:45:53;8.80;99.90
19968;DHT22;10145;49.152;9.282;2022-12-29T17:48:19;8.80;99.90
19968;DHT22;10145;49.152;9.282;2022-12-29T17:50:47;8.80;99.90
19968;DHT22;10145;49.152;9.282;2022-12-29T17:53:24;8.80;99.90
19968;DHT22;10145;49.152;9.282;2022-12-29T17:55:50;8.80;99.90
19968;DHT22;10145;49.152;9.282;2022-12-29T17:58:21;8.90;99.90
19968;DHT22;10145;49.152;9.282;2022-12-29T18:00:55;8.90;99.90
19968;DHT22;10145;49.152;9.282;2022-12-29T18:03:29;8.90;99.90
19968;DHT22;10145;49.152;9.282;2022-12-29T18:05:56;8.90;99.90